Time;durP1;ratioP1;P1;durP2;ratioP2;P2;SDS_P1;SDS_P2;PMS_P1;PMS_P2;Temp;Humidity;BMP_temperature;BMP_pressure;BME280_temperature;BME280_humidity;BME280_pressure;Samples;Min_cycle;Max_cycle;Signal;HPM_P1;HPM_P2
2021/04/15 00:00:34;;;;;;;14.60;11.32;;;;;;;0.30;80.58;96460.28;5044452;28;20111;-47
2021/04/15 00:03:14;;;;;;;15.43;11.30;;;;;;;0.32;80.42;96460.00;5052898;28;20056;-46
2021/04/15 00:05:42;;;;;;;14.48;10.23;;;;;;;0.32;80.65;96462.69;5049218;28;20052;-46
2021/04/15 00:08:10;;;;;;;16.23;11.15;;;;;;;0.31;80.99;96469.06;5061816;28;20056;-46
2021/04/15 00:10:41;;;;;;;14.02;10.68;;;;;;;0.26;80.91;96453.88;5030875;28;20552;-46
2021/04/15 00:13:14;;;;;;;14.63;10.75;;;;;;;0.33;80.59;96458.97;5041560;28;20057;-46
2021/04/15 00:15:40;;;;;;;15.57;10.38;;;;;;;0.42;80.41;96452.09;5039545;28;20050;-46
2021/04/15 00:18:07;;;;;;;17.50;11.25;;;;;;;0.45;80.02;96456.91;5050309;28;20045;-46
2021/04/15 00:20:34;;;;;;;13.73;9.95;;;;;;;0.48;80.02;96451.09;5054217;28;20455;-44
2021/04/15 00:23:00;;;;;;;17.92;10.35;;;;;;;0.56;79.55;96452.50;5053691;28;20053;-44
2021/04/15 00:25:27;;;;;;;16.02;10.68;;;;;;;0.62;79.25;96454.13;5052334;28;20049;-48
2021/04/15 00:27:54;;;;;;;17.60;10.68;;;;;;;0.74;79.77;96448.59;5055111;28;20045;-44
2021/04/15 00:30:22;;;;;;;14.75;10.85;;;;;;;0.75;78.79;96450.19;5052824;28;20052;-47
2021/04/15 00:32:49;;;;;;;18.70;11.35;;;;;;;0.70;78.88;96446.47;5053737;28;20059;-45
2021/04/15 00:35:17;;;;;;;16.38;10.93;;;;;;;0.64;79.28;96444.81;5038812;28;20057;-45
2021/04/15 00:37:48;;;;;;;15.38;11.00;;;;;;;0.64;79.07;96444.81;5034734;28;20053;-45
2021/04/15 00:40:20;;;;;;;16.98;10.95;;;;;;;0.64;79.01;96444.81;5034740;28;20077;-46
2021/04/15 00:42:47;;;;;;;15.98;10.85;;;;;;;0.59;79.71;96442.13;5035222;28;20418;-47
2021/04/15 00:45:21;;;;;;;14.60;10.80;;;;;;;0.58;79.54;96440.50;5044488;28;20056;-46
2021/04/15 00:48:08;;;;;;;13.90;10.85;;;;;;;0.61;79.67;96444.53;5074743;28;20492;-47
2021/04/15 00:50:40;;;;;;;14.43;10.57;;;;;;;0.64;79.34;96439.50;5074603;28;20056;-44
2021/04/15 00:53:11;;;;;;;15.30;10.57;;;;;;;0.61;79.18;96440.00;5044108;28;20424;-43
2021/04/15 00:55:38;;;;;;;14.90;10.85;;;;;;;0.72;78.96;96435.56;5055297;28;20057;-47
2021/04/15 00:58:05;;;;;;;14.70;11.27;;;;;;;0.75;78.62;96440.38;5053578;28;20051;-46
2021/04/15 01:00:35;;;;;;;16.02;11.48;;;;;;;0.66;78.94;96434.72;5050705;28;20139;-46
2021/04/15 01:03:02;;;;;;;15.23;10.93;;;;;;;0.55;79.88;96440.22;5074590;22;20067;-43
2021/04/15 01:05:34;;;;;;;16.15;11.35;;;;;;;0.54;80.15;96433.31;5070177;28;20135;-44
2021/04/15 01:08:02;;;;;;;15.93;11.82;;;;;;;0.51;80.19;96441.78;5068286;28;20037;-45
2021/04/15 01:10:31;;;;;;;15.52;11.40;;;;;;;0.53;80.23;96440.50;5077023;28;20055;-45
2021/04/15 01:13:16;;;;;;;17.85;12.05;;;;;;;0.47;80.09;96430.84;5077136;28;20049;-46
2021/04/15 01:15:56;;;;;;;17.35;11.52;;;;;;;0.35;80.50;96435.56;5053024;28;20057;-44
2021/04/15 01:18:31;;;;;;;17.38;12.07;;;;;;;0.22;80.93;96432.25;5053081;28;20522;-45
2021/04/15 01:21:10;;;;;;;15.20;11.73;;;;;;;0.16;81.25;96424.47;5052634;28;20048;-46
2021/04/15 01:23:53;;;;;;;16.30;11.80;;;;;;;0.15;81.33;96423.69;5065527;28;20052;-45
2021/04/15 01:26:51;;;;;;;18.13;12.30;;;;;;;0.07;81.48;96429.50;5052942;28;20099;-47
2021/04/15 01:29:32;;;;;;;18.80;11.98;;;;;;;0.01;81.60;96438.47;5063245;28;20040;-44
2021/04/15 01:32:02;;;;;;;18.67;12.60;;;;;;;-0.03;81.93;96427.53;5071726;28;20798;-43
2021/04/15 01:34:50;;;;;;;17.40;12.60;;;;;;;-0.12;82.28;96426.38;5062675;28;20413;-43
2021/04/15 01:37:19;;;;;;;17.27;12.57;;;;;;;-0.04;82.03;96419.78;5052183;28;20127;-46
2021/04/15 01:39:53;;;;;;;18.33;12.77;;;;;;;-0.07;82.21;96423.75;5052283;28;20049;-45
2021/04/15 01:42:32;;;;;;;18.42;13.13;;;;;;;-0.07;81.96;96428.28;5051791;28;20053;-44
2021/04/15 01:45:06;;;;;;;18.00;12.70;;;;;;;-0.10;81.94;96424.28;5052704;28;20072;-48
2021/04/15 01:47:40;;;;;;;17.73;13.15;;;;;;;-0.08;81.99;96421.34;5052456;28;20041;-44
2021/04/15 01:50:14;;;;;;;20.95;13.43;;;;;;;-0.07;81.95;96412.31;5066167;28;20394;-44
2021/04/15 01:52:43;;;;;;;21.83;13.02;;;;;;;-0.12;82.14;96418.41;5064513;28;20056;-44
2021/04/15 01:55:19;;;;;;;17.73;14.07;;;;;;;-0.13;81.92;96414.16;5052240;28;20049;-46
2021/04/15 01:58:16;;;;;;;18.95;14.50;;;;;;;-0.26;82.37;96410.03;5059221;28;20416;-43
2021/04/15 02:00:45;;;;;;;21.88;13.35;;;;;;;-0.27;82.46;96411.06;5053488;28;20057;-47
2021/04/15 02:03:26;;;;;;;18.05;12.77;;;;;;;-0.33;82.26;96409.41;5053986;28;20048;-45
2021/04/15 02:05:58;;;;;;;22.88;13.45;;;;;;;-0.36;82.85;96411.78;5072085;28;20056;-44
2021/04/15 02:08:29;;;;;;;19.63;13.65;;;;;;;-0.31;83.21;96409.97;5070788;28;20082;-50
2021/04/15 02:11:16;;;;;;;20.58;13.25;;;;;;;-0.21;81.92;96408.47;5055787;28;20060;-44
2021/04/15 02:13:44;;;;;;;19.85;13.52;;;;;;;-0.40;82.56;96408.81;5049769;28;20044;-43
2021/04/15 02:16:16;;;;;;;20.38;13.32;;;;;;;-0.41;82.62;96417.84;5066388;28;20068;-46
2021/04/15 02:18:52;;;;;;;18.15;13.25;;;;;;;-0.46;82.58;96404.50;5071532;28;20044;-47
2021/04/15 02:21:19;;;;;;;18.88;13.05;;;;;;;-0.45;82.33;96406.13;5070802;28;20128;-45
2021/04/15 02:23:54;;;;;;;19.77;13.82;;;;;;;-0.45;82.18;96405.31;5060067;28;20056;-49
2021/04/15 02:26:46;;;;;;;17.10;12.02;;;;;;;-0.40;81.85;96400.84;5058856;28;20109;-45
2021/04/15 02:29:18;;;;;;;18.90;13.07;;;;;;;-0.35;81.45;96410.75;5070750;28;20110;-46
2021/04/15 02:31:49;;;;;;;17.63;12.50;;;;;;;-0.35;80.64;96411.53;5058320;28;20049;-45
2021/04/15 02:34:25;;;;;;;18.90;12.55;;;;;;;-0.34;81.28;96415.78;5051915;28;20131;-46
2021/04/15 02:36:57;;;;;;;13.52;10.40;;;;;;;-0.25;79.42;96406.31;5051526;28;20052;-48
2021/04/15 02:39:30;;;;;;;12.95;8.98;;;;;;;-0.27;78.30;96413.72;5057419;28;20609;-47
2021/04/15 02:42:01;;;;;;;11.93;8.82;;;;;;;-0.29;78.75;96407.88;5064652;28;20056;-51
2021/04/15 02:44:35;;;;;;;13.82;8.63;;;;;;;-0.21;79.18;96413.78;5069492;28;20053;-48
2021/04/15 02:47:06;;;;;;;14.20;9.32;;;;;;;-0.27;78.51;96408.41;5071491;28;20036;-47
2021/04/15 02:49:34;;;;;;;14.63;9.55;;;;;;;-0.29;78.49;96423.84;5062667;28;20457;-50
2021/04/15 02:52:08;;;;;;;17.00;9.30;;;;;;;-0.37;78.91;96420.81;5051226;28;20045;-45
2021/04/15 02:54:38;;;;;;;12.82;8.70;;;;;;;-0.30;78.85;96413.44;5051517;28;20084;-48
2021/04/15 02:57:14;;;;;;;13.32;8.40;;;;;;;-0.31;78.24;96411.84;5051488;28;20057;-45
2021/04/15 02:59:43;;;;;;;10.45;8.18;;;;;;;-0.32;78.06;96418.22;5061818;28;20483;-46
2021/04/15 03:02:16;;;;;;;14.95;8.13;;;;;;;-0.43;77.40;96409.31;5070940;28;20136;-46
2021/04/15 03:04:50;;;;;;;14.18;9.35;;;;;;;-0.73;79.15;96404.47;5068711;28;20040;-44
2021/04/15 03:07:18;;;;;;;12.57;8.77;;;;;;;-0.71;79.12;96408.50;5060006;28;20045;-45
2021/04/15 03:09:46;;;;;;;13.15;7.78;;;;;;;-0.76;78.64;96411.09;5082181;28;20056;-47
2021/04/15 03:12:26;;;;;;;11.52;8.10;;;;;;;-0.76;78.13;96405.78;5069091;28;20064;-45
2021/04/15 03:15:00;;;;;;;12.18;8.02;;;;;;;-0.84;78.65;96408.88;5051346;28;20074;-45
2021/04/15 03:17:30;;;;;;;12.73;8.05;;;;;;;-0.85;79.16;96411.78;5051113;28;20053;-46
2021/04/15 03:20:03;;;;;;;17.75;8.70;;;;;;;-0.87;79.70;96404.06;5052516;28;20140;-44
2021/04/15 03:22:46;;;;;;;16.35;9.85;;;;;;;-0.82;79.69;96405.97;5050100;28;20490;-44
2021/04/15 03:25:13;;;;;;;13.48;8.75;;;;;;;-0.87;78.94;96420.00;5051100;28;20068;-48
2021/04/15 03:27:42;;;;;;;16.42;9.18;;;;;;;-0.95;79.27;96407.13;5050928;28;20106;-46
2021/04/15 03:30:19;;;;;;;12.13;8.30;;;;;;;-0.90;79.62;96417.03;5054089;28;20048;-44
2021/04/15 03:32:55;;;;;;;11.43;8.10;;;;;;;-0.93;79.90;96407.72;5069979;28;20060;-43
2021/04/15 03:35:27;;;;;;;13.95;8.80;;;;;;;-1.04;79.39;96413.91;5071014;28;20049;-45
2021/04/15 03:38:02;;;;;;;11.75;8.13;;;;;;;-1.20;79.92;96413.75;5054218;28;20052;-43
2021/04/15 03:40:32;;;;;;;18.70;9.43;;;;;;;-1.30;80.64;96405.66;5052443;28;20066;-43
2021/04/15 03:43:04;;;;;;;13.10;8.85;;;;;;;-1.33;80.68;96410.63;5062860;28;20130;-45
2021/04/15 03:45:42;;;;;;;14.95;8.65;;;;;;;-1.42;81.18;96405.75;5050954;28;20114;-44
2021/04/15 03:48:14;;;;;;;14.38;8.15;;;;;;;-1.44;81.00;96402.53;5050596;28;20045;-44
2021/04/15 03:50:52;;;;;;;11.90;7.82;;;;;;;-1.42;81.16;96404.94;5052780;28;20126;-45
2021/04/15 03:53:27;;;;;;;15.00;8.77;;;;;;;-1.43;81.80;96408.63;5074508;28;20106;-44
2021/04/15 03:56:00;;;;;;;14.63;8.73;;;;;;;-1.35;82.10;96412.72;5075049;28;20128;-46
2021/04/15 03:58:33;;;;;;;12.77;8.40;;;;;;;-1.36;82.17;96421.75;5079038;28;20531;-48
2021/04/15 04:01:09;;;;;;;18.42;8.90;;;;;;;-1.31;81.72;96413.84;5067421;28;20057;-45
2021/04/15 04:03:39;;;;;;;13.15;8.30;;;;;;;-1.34;81.78;96415.13;5074334;28;20068;-47
2021/04/15 04:06:14;;;;;;;11.90;8.30;;;;;;;-1.27;82.24;96418.44;5055456;28;20059;-47
2021/04/15 04:08:41;;;;;;;17.35;8.10;;;;;;;-1.21;81.25;96419.28;5054670;28;20044;-47
2021/04/15 04:11:14;;;;;;;13.27;7.05;;;;;;;-1.22;80.61;96415.84;5053392;28;20041;-44
2021/04/15 04:13:52;;;;;;;11.10;7.27;;;;;;;-1.29;79.81;96415.22;5054166;28;20055;-43
2021/04/15 04:16:22;;;;;;;10.63;6.22;;;;;;;-1.13;79.50;96416.22;5054626;28;20282;-44
2021/04/15 04:19:06;;;;;;;15.07;6.18;;;;;;;-1.12;78.93;96417.03;5054668;28;20127;-44
2021/04/15 04:21:48;;;;;;;11.57;6.07;;;;;;;-1.08;77.68;96426.09;5053958;28;20533;-46
2021/04/15 04:24:27;;;;;;;9.32;6.00;;;;;;;-1.08;77.92;96418.94;5066325;28;20465;-46
2021/04/15 04:27:01;;;;;;;9.32;6.30;;;;;;;-1.08;77.74;96418.13;5054657;28;20072;-45
2021/04/15 04:29:34;;;;;;;11.45;6.68;;;;;;;-1.10;77.68;96418.38;5071418;28;20627;-44
2021/04/15 04:32:05;;;;;;;10.03;6.20;;;;;;;-1.03;78.18;96410.25;5059374;28;20066;-45
2021/04/15 04:34:33;;;;;;;10.00;6.35;;;;;;;-1.02;77.97;96411.84;5068887;28;20060;-43
2021/04/15 04:37:02;;;;;;;12.80;6.78;;;;;;;-1.05;77.83;96428.25;5054260;28;20077;-46
2021/04/15 04:39:29;;;;;;;12.52;6.57;;;;;;;-1.04;77.80;96419.22;5066975;28;20442;-44
2021/04/15 04:42:40;;;;;;;12.93;6.82;;;;;;;-0.96;78.15;96416.97;5072735;28;20197;-43
2021/04/15 04:45:08;;;;;;;15.85;6.45;;;;;;;-0.95;76.86;96428.38;5062681;28;20471;-43
2021/04/15 04:48:01;;;;;;;13.43;7.20;;;;;;;-0.91;77.14;96434.84;5080437;28;20130;-46
2021/04/15 04:51:03;;;;;;;10.60;6.57;;;;;;;-0.77;76.45;96435.25;5094503;28;20055;-46
2021/04/15 04:53:33;;;;;;;12.20;6.70;;;;;;;-0.75;76.47;96436.63;5063238;28;20132;-47
2021/04/15 04:56:22;;;;;;;10.35;5.97;;;;;;;-0.76;75.98;96437.66;5064421;28;20386;-46
2021/04/15 04:58:55;;;;;;;13.48;6.38;;;;;;;-0.75;75.95;96433.97;5056381;28;20529;-47
2021/04/15 05:01:21;;;;;;;9.13;6.60;;;;;;;-0.88;75.33;96429.00;5066844;28;20064;-44
2021/04/15 05:03:57;;;;;;;11.77;7.07;;;;;;;-0.86;76.15;96428.78;5070814;28;20378;-46
2021/04/15 05:06:27;;;;;;;12.93;6.68;;;;;;;-0.78;75.31;96437.13;5069781;28;20471;-47
2021/04/15 05:09:01;;;;;;;14.52;6.43;;;;;;;-0.64;75.46;96434.09;5064346;28;20398;-47
2021/04/15 05:11:32;;;;;;;11.15;6.63;;;;;;;-0.75;75.39;96446.44;5073598;28;20420;-46
2021/04/15 05:14:00;;;;;;;13.20;6.63;;;;;;;-0.65;75.32;96441.25;5071160;28;20406;-47
2021/04/15 05:16:34;;;;;;;12.82;7.22;;;;;;;-0.63;75.35;96436.47;5072079;28;20053;-46
2021/04/15 05:19:01;;;;;;;10.98;6.95;;;;;;;-0.73;74.30;96441.69;5073572;28;20052;-45
2021/04/15 05:21:31;;;;;;;10.23;6.32;;;;;;;-0.69;75.11;96444.66;5063252;28;20049;-44
2021/04/15 05:24:12;;;;;;;10.13;6.60;;;;;;;-0.68;74.48;96441.75;5052232;28;20060;-45
2021/04/15 05:26:41;;;;;;;10.52;6.30;;;;;;;-0.61;74.67;96446.88;5053548;28;20064;-46
2021/04/15 05:29:12;;;;;;;10.57;6.35;;;;;;;-0.57;74.18;96450.63;5053729;28;20531;-45
2021/04/15 05:31:42;;;;;;;13.13;6.53;;;;;;;-0.47;73.77;96450.75;5053216;28;20414;-45
2021/04/15 05:34:24;;;;;;;10.48;6.80;;;;;;;-0.41;74.28;96460.38;5052261;28;20044;-46
2021/04/15 05:36:54;;;;;;;11.38;6.88;;;;;;;-0.31;74.05;96455.19;5061340;28;20434;-47
2021/04/15 05:39:21;;;;;;;13.25;7.57;;;;;;;-0.30;74.03;96450.66;5067767;28;20390;-45
2021/04/15 05:42:01;;;;;;;12.45;6.70;;;;;;;-0.33;73.28;96446.63;5055885;28;20049;-49
2021/04/15 05:44:27;;;;;;;15.15;7.07;;;;;;;-0.44;73.15;96447.59;5068588;28;20057;-44
2021/04/15 05:46:54;;;;;;;18.35;7.25;;;;;;;-0.53;73.79;96446.44;5053769;28;20099;-45
2021/04/15 05:49:26;;;;;;;23.00;8.00;;;;;;;-0.45;73.64;96447.84;5053624;28;20103;-48
2021/04/15 05:52:15;;;;;;;15.07;6.95;;;;;;;-0.51;72.81;96439.81;5066799;28;20471;-46
2021/04/15 05:54:42;;;;;;;16.00;7.10;;;;;;;-0.45;73.60;96446.00;5060106;28;20037;-46
2021/04/15 05:57:34;;;;;;;12.68;7.15;;;;;;;-0.47;73.16;96440.13;5067068;28;20048;-45
2021/04/15 06:00:09;;;;;;;15.55;7.05;;;;;;;-0.38;73.50;96443.94;5064067;28;20052;-45
2021/04/15 06:02:57;;;;;;;17.30;7.78;;;;;;;-0.44;72.72;96449.44;5058622;28;20049;-43
2021/04/15 06:05:33;;;;;;;13.25;7.40;;;;;;;-0.30;74.19;96450.66;5058450;28;20102;-44
2021/04/15 06:08:06;;;;;;;14.73;7.38;;;;;;;-0.18;73.06;96453.97;5064006;28;20127;-46
2021/04/15 06:10:38;;;;;;;14.27;8.07;;;;;;;-0.09;72.40;96457.81;5062679;28;20049;-46
2021/04/15 06:13:05;;;;;;;14.18;7.20;;;;;;;-0.20;71.91;96450.75;5054406;28;20057;-44
2021/04/15 06:15:42;;;;;;;11.10;7.18;;;;;;;-0.06;73.34;96454.63;5063500;28;20116;-45
2021/04/15 06:18:15;;;;;;;11.80;7.95;;;;;;;-0.02;72.67;96457.59;5067377;28;20355;-44
2021/04/15 06:20:45;;;;;;;16.60;7.63;;;;;;;-0.11;72.52;96457.25;5069688;28;20045;-44
2021/04/15 06:23:17;;;;;;;16.27;7.97;;;;;;;-0.21;72.57;96464.31;5058789;28;20290;-44
2021/04/15 06:25:48;;;;;;;13.45;7.55;;;;;;;-0.05;72.66;96460.75;5062577;28;20053;-48
2021/04/15 06:28:24;;;;;;;11.27;7.45;;;;;;;-0.08;73.09;96472.69;5065678;28;20071;-45
2021/04/15 06:31:01;;;;;;;17.52;8.05;;;;;;;-0.03;72.76;96463.97;5066455;28;20416;-49
2021/04/15 06:33:28;;;;;;;13.45;7.43;;;;;;;-0.10;72.84;96466.84;5070294;28;20045;-49
2021/04/15 06:35:56;;;;;;;13.77;7.97;;;;;;;0.12;73.52;96468.63;5068599;28;20455;-46
2021/04/15 06:38:44;;;;;;;16.67;8.02;;;;;;;0.12;71.30;96474.75;5070475;28;20054;-49
2021/04/15 06:41:32;;;;;;;18.42;8.13;;;;;;;0.28;72.00;96482.88;5066707;28;20373;-45
2021/04/15 06:43:58;;;;;;;13.35;7.82;;;;;;;0.41;69.48;96474.47;5066002;28;20566;-43
2021/04/15 06:47:03;;;;;;;16.77;7.95;;;;;;;0.38;71.40;96480.28;5069829;28;20075;-45
2021/04/15 06:49:50;;;;;;;15.82;8.57;;;;;;;0.38;70.05;96489.09;5086157;28;20551;-46
2021/04/15 06:52:25;;;;;;;16.35;9.15;;;;;;;0.78;69.48;96486.97;5065369;28;20044;-48
2021/04/15 06:55:12;;;;;;;13.10;7.72;;;;;;;0.76;68.20;96483.78;5066625;28;20052;-49
2021/04/15 06:58:01;;;;;;;14.25;7.65;;;;;;;1.16;68.24;96483.22;5062428;28;20425;-45
2021/04/15 07:01:07;;;;;;;14.48;7.97;;;;;;;0.82;67.81;96482.78;5066454;28;20053;-47
2021/04/15 07:04:02;;;;;;;14.75;7.68;;;;;;;0.87;67.55;96488.13;5071206;28;20044;-44
2021/04/15 07:06:40;;;;;;;18.25;8.32;;;;;;;0.91;68.06;96491.88;5068319;28;20094;-40
2021/04/15 07:09:35;;;;;;;13.23;7.45;;;;;;;1.33;67.15;96489.19;5070124;28;20044;-45
2021/04/15 07:12:23;;;;;;;12.68;8.05;;;;;;;1.49;67.13;96491.91;5067256;28;20048;-44
2021/04/15 07:15:02;;;;;;;12.05;7.57;;;;;;;1.37;67.28;96503.59;5077135;28;20058;-44
2021/04/15 07:17:47;;;;;;;16.77;7.68;;;;;;;1.43;66.69;96499.13;5066176;28;20044;-45
2021/04/15 07:20:50;;;;;;;13.77;7.93;;;;;;;1.31;66.94;96493.97;5070744;28;20056;-46
2021/04/15 07:23:34;;;;;;;11.57;7.55;;;;;;;1.17;66.83;96496.31;5068899;28;20044;-43
2021/04/15 07:26:46;;;;;;;11.20;7.45;;;;;;;1.13;67.42;96494.41;5073261;22;20045;-50
2021/04/15 07:29:27;;;;;;;16.40;8.05;;;;;;;1.54;66.56;96497.28;5041391;28;20077;-48
2021/04/15 07:32:19;;;;;;;12.55;7.70;;;;;;;1.64;65.58;96498.13;5047100;28;20529;-47
2021/04/15 07:34:55;;;;;;;15.05;8.23;;;;;;;1.52;66.24;96502.06;5052845;28;20049;-44
2021/04/15 07:37:56;;;;;;;14.43;7.95;;;;;;;1.67;65.93;96502.13;5025235;28;20073;-46
2021/04/15 07:40:33;;;;;;;12.88;8.02;;;;;;;1.71;65.16;96502.41;5043148;28;20158;-44
2021/04/15 07:43:18;;;;;;;13.02;8.18;;;;;;;1.91;65.11;96499.81;5034432;28;20150;-44
2021/04/15 07:46:22;;;;;;;12.70;8.27;;;;;;;1.93;63.92;96503.03;5045553;28;20055;-46
2021/04/15 07:49:02;;;;;;;10.50;7.20;;;;;;;1.99;64.75;96504.63;5018218;28;20054;-48
2021/04/15 07:51:41;;;;;;;11.55;7.28;;;;;;;1.84;64.72;96512.59;5024299;28;20095;-44
2021/04/15 07:54:26;;;;;;;15.88;8.05;;;;;;;1.90;64.81;96503.53;5049032;28;20531;-45
2021/04/15 07:57:22;;;;;;;12.55;7.68;;;;;;;1.91;65.35;96499.81;5029150;28;20048;-47
2021/04/15 08:00:20;;;;;;;15.38;8.25;;;;;;;2.12;64.86;96507.88;5020339;28;20054;-44
2021/04/15 08:03:22;;;;;;;12.23;7.80;;;;;;;2.30;64.38;96502.03;5031575;28;20835;-47
2021/04/15 08:06:11;;;;;;;12.23;7.55;;;;;;;2.44;62.67;96508.47;5033539;28;20525;-46
2021/04/15 08:09:14;;;;;;;13.98;7.90;;;;;;;2.52;61.86;96507.91;5029243;28;20052;-46
2021/04/15 08:12:05;;;;;;;16.70;8.05;;;;;;;2.50;62.89;96506.56;5035363;28;20041;-48
2021/04/15 08:14:45;;;;;;;13.07;7.32;;;;;;;2.33;61.92;96506.81;5030542;28;20050;-47
2021/04/15 08:17:19;;;;;;;13.70;7.18;;;;;;;2.47;61.99;96507.94;5037873;28;20045;-49
2021/04/15 08:20:04;;;;;;;9.73;6.75;;;;;;;2.49;61.50;96510.31;5029036;28;20046;-45
2021/04/15 08:22:58;;;;;;;12.00;7.60;;;;;;;2.72;61.77;96509.00;5028458;28;20057;-48
2021/04/15 08:25:50;;;;;;;15.63;7.88;;;;;;;2.67;61.97;96501.00;5032504;28;20053;-47
2021/04/15 08:28:34;;;;;;;14.02;7.38;;;;;;;3.00;59.54;96499.63;5029717;28;20048;-47
2021/04/15 08:31:16;;;;;;;11.02;7.45;;;;;;;3.18;60.10;96504.38;5033621;28;20072;-47
2021/04/15 08:34:10;;;;;;;12.82;7.18;;;;;;;3.55;56.75;96494.41;5020910;28;20061;-47
2021/04/15 08:37:04;;;;;;;11.70;6.35;;;;;;;3.54;55.85;96501.63;5029544;28;20065;-46
2021/04/15 08:39:48;;;;;;;12.60;6.18;;;;;;;3.78;55.33;96499.13;5031262;28;20069;-51
2021/04/15 08:42:33;;;;;;;15.02;7.03;;;;;;;3.68;53.61;96493.81;5023234;28;20050;-48
2021/04/15 08:45:22;;;;;;;9.48;5.82;;;;;;;3.81;53.18;96495.13;5033170;28;20494;-48
2021/04/15 08:48:01;;;;;;;14.27;7.05;;;;;;;3.83;54.41;96504.44;5038565;28;20455;-48
2021/04/15 08:50:35;;;;;;;9.68;6.43;;;;;;;4.45;52.15;96492.31;5031217;28;20132;-48
2021/04/15 08:53:13;;;;;;;10.07;6.70;;;;;;;4.22;50.80;96495.66;5030076;28;20084;-48
2021/04/15 08:55:47;;;;;;;16.40;6.50;;;;;;;4.65;51.37;96491.38;5038366;28;20052;-49
2021/04/15 08:58:51;;;;;;;9.20;7.13;;;;;;;5.01;49.21;96490.25;5033885;28;20115;-47
2021/04/15 09:01:36;;;;;;;12.10;7.13;;;;;;;4.82;49.36;96493.63;5033050;28;20530;-47
2021/04/15 09:04:08;;;;;;;10.23;6.68;;;;;;;4.53;49.45;96488.25;5033965;28;20574;-47
2021/04/15 09:07:02;;;;;;;9.13;6.95;;;;;;;4.88;50.38;96492.50;5038351;28;20076;-49
2021/04/15 09:10:00;;;;;;;12.48;6.85;;;;;;;5.51;49.48;96488.91;5037616;28;20053;-47
2021/04/15 09:13:04;;;;;;;12.27;6.65;;;;;;;4.68;47.89;96490.00;5030343;28;20143;-46
2021/04/15 09:16:13;;;;;;;10.43;6.55;;;;;;;5.03;48.79;96485.41;5035623;28;20049;-48
2021/04/15 09:18:48;;;;;;;9.18;6.53;;;;;;;5.30;49.59;96491.03;5032377;28;20037;-49
2021/04/15 09:21:26;;;;;;;11.52;6.97;;;;;;;4.83;49.72;96487.19;5032413;28;20410;-49
2021/04/15 09:23:59;;;;;;;12.02;6.43;;;;;;;4.56;48.13;96492.25;5035382;28;20061;-48
2021/04/15 09:26:40;;;;;;;8.85;6.93;;;;;;;4.81;49.78;96489.38;5031701;28;20127;-49
2021/04/15 09:29:14;;;;;;;10.30;6.43;;;;;;;4.67;48.83;96491.06;5032189;28;20046;-48
2021/04/15 09:31:50;;;;;;;9.38;6.68;;;;;;;4.87;49.43;96493.56;5025842;28;20054;-44
2021/04/15 09:34:39;;;;;;;8.45;6.50;;;;;;;5.02;49.05;96489.16;5048493;28;20049;-44
2021/04/15 09:37:35;;;;;;;11.27;7.18;;;;;;;5.07;49.35;96491.78;5041893;28;20406;-47
2021/04/15 09:40:35;;;;;;;12.23;7.53;;;;;;;4.61;49.79;96486.81;5026189;28;20057;-48
2021/04/15 09:43:08;;;;;;;10.55;6.88;;;;;;;4.82;49.54;96485.59;5026092;28;20056;-45
2021/04/15 09:45:43;;;;;;;10.20;5.22;;;;;;;4.81;44.34;96489.38;5046176;28;20049;-48
2021/04/15 09:48:29;;;;;;;8.98;5.57;;;;;;;5.00;43.36;96477.91;5034817;28;20045;-44
2021/04/15 09:51:07;;;;;;;6.63;5.15;;;;;;;4.89;42.47;96483.38;5021304;28;20042;-44
2021/04/15 09:53:43;;;;;;;8.43;5.13;;;;;;;4.80;42.66;96481.59;5029812;28;20053;-46
2021/04/15 09:56:47;;;;;;;6.35;5.00;;;;;;;5.21;44.08;96482.00;5044115;28;20052;-45
2021/04/15 09:59:47;;;;;;;9.93;6.15;;;;;;;5.58;43.74;96485.88;5028717;28;20045;-47
2021/04/15 10:02:40;;;;;;;10.77;6.55;;;;;;;5.85;44.07;96475.38;5031133;28;20052;-43
2021/04/15 10:05:18;;;;;;;7.10;5.10;;;;;;;6.40;42.00;96474.91;5031402;28;20046;-49
2021/04/15 10:07:51;;;;;;;7.88;5.60;;;;;;;6.59;42.79;96476.78;5034073;28;20798;-47
2021/04/15 10:10:27;;;;;;;;;;;;;;;6.81;41.43;96474.25;5030256;28;20042;-49
2021/04/15 10:12:57;;;;;;;9.88;6.25;;;;;;;5.82;42.00;96475.94;5031891;28;19928;-48
2021/04/15 10:15:37;;;;;;;7.00;5.57;;;;;;;5.70;42.14;96472.88;5030697;28;20056;-47
2021/04/15 10:18:23;;;;;;;9.52;6.30;;;;;;;4.58;46.01;96474.81;5028358;28;20046;-48
2021/04/15 10:21:11;;;;;;;9.43;6.90;;;;;;;3.99;47.67;96473.84;5027162;28;20050;-48
2021/04/15 10:24:12;;;;;;;10.98;6.35;;;;;;;3.66;52.99;96474.56;5031441;28;20052;-47
2021/04/15 10:27:00;;;;;;;7.90;5.97;;;;;;;3.22;58.00;96475.25;5033334;28;20049;-48
2021/04/15 10:29:36;;;;;;;7.82;5.05;;;;;;;2.28;59.55;96488.94;5029691;28;20108;-47
2021/04/15 10:32:12;;;;;;;9.18;5.78;;;;;;;2.09;63.58;96480.63;5032901;28;20537;-44
2021/04/15 10:34:41;;;;;;;7.68;5.95;;;;;;;2.22;60.77;96486.53;5029180;28;20046;-48
2021/04/15 10:37:45;;;;;;;7.72;5.95;;;;;;;2.29;62.32;96487.06;5039579;28;20547;-50
2021/04/15 10:40:51;;;;;;;7.57;5.93;;;;;;;2.33;61.01;96480.94;5047728;28;20060;-46
2021/04/15 10:43:35;;;;;;;8.07;5.90;;;;;;;2.22;61.67;96478.53;5035211;28;20576;-47
2021/04/15 10:46:31;;;;;;;8.65;6.32;;;;;;;2.29;59.42;96479.06;5032645;28;20099;-50
2021/04/15 10:48:57;;;;;;;9.20;6.57;;;;;;;2.56;59.41;96484.94;5028332;28;20131;-43
2021/04/15 10:51:39;;;;;;;8.63;6.38;;;;;;;2.87;58.97;96484.94;5029803;28;20046;-48
2021/04/15 10:54:46;;;;;;;10.23;6.55;;;;;;;2.91;56.71;96485.19;5030058;28;20063;-47
2021/04/15 10:57:18;;;;;;;7.65;6.38;;;;;;;3.04;58.62;96490.00;5028165;28;20096;-50
2021/04/15 10:59:48;;;;;;;7.57;5.15;;;;;;;2.66;57.20;96481.47;5021495;28;20077;-46
2021/04/15 11:02:22;;;;;;;8.82;5.53;;;;;;;3.19;55.50;96481.16;5024727;28;20054;-46
2021/04/15 11:04:50;;;;;;;10.40;7.18;;;;;;;3.50;53.77;96487.97;5024549;28;20057;-44
2021/04/15 11:07:33;;;;;;;6.70;5.13;;;;;;;3.68;53.93;96485.78;5032783;28;20046;-44
2021/04/15 11:10:10;;;;;;;7.00;5.13;;;;;;;3.81;51.24;96481.72;5024880;28;20129;-50
2021/04/15 11:12:37;;;;;;;7.03;5.45;;;;;;;3.96;51.53;96466.38;5022299;28;20322;-47
2021/04/15 11:15:09;;;;;;;7.07;5.32;;;;;;;3.83;49.62;96468.84;5029185;28;20049;-47
2021/04/15 11:17:42;;;;;;;7.05;5.32;;;;;;;4.02;51.21;96461.00;5026153;28;20045;-46
2021/04/15 11:20:19;;;;;;;6.97;5.60;;;;;;;4.13;50.80;96457.19;5029373;28;20068;-51
2021/04/15 11:22:58;;;;;;;8.43;5.88;;;;;;;4.20;51.23;96457.66;5029292;28;20057;-48
2021/04/15 11:25:37;;;;;;;9.75;5.38;;;;;;;4.17;50.39;96448.31;5030041;28;20050;-48
2021/04/15 11:28:09;;;;;;;6.78;5.85;;;;;;;4.28;49.84;96446.34;5035807;28;20642;-47
2021/04/15 11:30:41;;;;;;;7.60;5.77;;;;;;;3.94;51.29;96452.47;5022599;28;20049;-49
2021/04/15 11:33:45;;;;;;;6.55;5.60;;;;;;;3.36;50.54;96443.38;5029511;28;20613;-51
2021/04/15 11:36:23;;;;;;;7.85;5.50;;;;;;;3.67;51.77;96449.38;5027566;28;20052;-46
2021/04/15 11:39:05;;;;;;;8.15;5.75;;;;;;;3.65;50.62;96435.50;5029406;28;20046;-47
2021/04/15 11:41:34;;;;;;;9.68;7.03;;;;;;;4.16;51.80;96441.34;5023170;28;20053;-46
2021/04/15 11:44:04;;;;;;;11.00;6.60;;;;;;;4.61;48.59;96436.69;5031308;28;20057;-48
2021/04/15 11:46:50;;;;;;;8.77;6.22;;;;;;;5.21;48.93;96438.28;5030913;28;20045;-46
2021/04/15 11:49:29;;;;;;;8.50;5.75;;;;;;;5.84;47.27;96436.16;5029355;28;20045;-44
2021/04/15 11:52:01;;;;;;;7.55;5.45;;;;;;;6.61;45.02;96432.38;5030267;28;20076;-45
2021/04/15 11:54:32;;;;;;;7.65;5.50;;;;;;;7.30;45.55;96431.69;5020625;28;20042;-45
2021/04/15 11:57:15;;;;;;;6.95;4.20;;;;;;;7.41;36.93;96416.91;5031352;28;20049;-49
2021/04/15 11:59:41;;;;;;;5.65;4.25;;;;;;;7.58;40.87;96422.53;5030968;28;20200;-48
2021/04/15 12:02:22;;;;;;;5.32;3.90;;;;;;;8.56;39.06;96432.75;5023774;28;20046;-48
2021/04/15 12:04:49;;;;;;;6.68;3.95;;;;;;;9.17;37.62;96422.34;5026921;28;20046;-44
2021/04/15 12:07:27;;;;;;;6.35;4.78;;;;;;;7.96;36.49;96435.72;5029899;28;20057;-48
2021/04/15 12:09:56;;;;;;;7.18;4.53;;;;;;;7.82;38.90;96424.19;5031341;28;20057;-49
2021/04/15 12:12:38;;;;;;;5.00;3.95;;;;;;;6.03;41.09;96430.03;5025412;28;20084;-46
2021/04/15 12:15:16;;;;;;;5.97;3.65;;;;;;;5.56;42.18;96435.19;5033932;28;20507;-44
2021/04/15 12:17:48;;;;;;;4.60;3.10;;;;;;;5.27;42.03;96431.78;5043725;28;20046;-45
2021/04/15 12:20:29;;;;;;;5.72;3.97;;;;;;;5.70;41.68;96431.81;5031801;28;20061;-46